sensor_id;sensor_type;location;lat;lon;timestamp;temperature;humidity
21772;DHT22;11047;47.904;8.110;2023-05-10T00:00:24;10.30;99.90
21772;DHT22;11047;47.904;8.110;2023-05-10T00:02:52;10.30;99.90
21772;DHT22;11047;47.904;8.110;2023-05-10T00:05:19;10.30;99.90
21772;DHT22;11047;47.904;8.110;2023-05-10T00:07:46;10.20;99.90
21772;DHT22;11047;47.904;8.110;2023-05-10T00:10:13;10.20;99.90
21772;DHT22;11047;47.904;8.110;2023-05-10T00:12:40;10.20;99.90
21772;DHT22;11047;47.904;8.110;2023-05-10T00:15:08;10.30;99.90
21772;DHT22;11047;47.904;8.110;2023-05-10T00:17:35;10.30;99.90
21772;DHT22;11047;47.904;8.110;2023-05-10T00:20:04;10.30;99.90
21772;DHT22;11047;47.904;8.110;2023-05-10T00:22:32;10.20;99.90
21772;DHT22;11047;47.904;8.110;2023-05-10T00:24:59;10.20;99.90
21772;DHT22;11047;47.904;8.110;2023-05-10T00:27:26;10.20;99.90
21772;DHT22;11047;47.904;8.110;2023-05-10T00:29:52;10.20;99.90
21772;DHT22;11047;47.904;8.110;2023-05-10T00:32:19;10.20;99.90
21772;DHT22;11047;47.904;8.110;2023-05-10T00:34:46;10.20;99.90
21772;DHT22;11047;47.904;8.110;2023-05-10T00:37:14;10.10;99.90
21772;DHT22;11047;47.904;8.110;2023-05-10T00:39:41;10.10;99.90
21772;DHT22;11047;47.904;8.110;2023-05-10T00:42:08;10.00;99.90
21772;DHT22;11047;47.904;8.110;2023-05-10T00:44:35;10.00;99.90
21772;DHT22;11047;47.904;8.110;2023-05-10T00:47:02;10.10;99.90
21772;DHT22;11047;47.904;8.110;2023-05-10T00:49:29;10.10;99.90
21772;DHT22;11047;47.904;8.110;2023-05-10T00:51:56;10.10;99.90
21772;DHT22;11047;47.904;8.110;2023-05-10T00:54:25;10.10;99.90
21772;DHT22;11047;47.904;8.110;2023-05-10T00:56:52;10.10;99.90
21772;DHT22;11047;47.904;8.110;2023-05-10T00:59:19;10.20;99.90
21772;DHT22;11047;47.904;8.110;2023-05-10T01:01:46;10.10;99.90
21772;DHT22;11047;47.904;8.110;2023-05-10T01:04:14;10.10;99.90
21772;DHT22;11047;47.904;8.110;2023-05-10T01:06:41;10.10;99.90
21772;DHT22;11047;47.904;8.110;2023-05-10T01:09:08;10.10;99.90
21772;DHT22;11047;47.904;8.110;2023-05-10T01:11:38;10.10;99.90
21772;DHT22;11047;47.904;8.110;2023-05-10T01:14:06;10.10;99.90
21772;DHT22;11047;47.904;8.110;2023-05-10T01:16:37;10.00;99.90
21772;DHT22;11047;47.904;8.110;2023-05-10T01:19:05;10.10;99.90
21772;DHT22;11047;47.904;8.110;2023-05-10T01:21:43;10.10;99.90
21772;DHT22;11047;47.904;8.110;2023-05-10T01:27:24;10.00;99.90
21772;DHT22;11047;47.904;8.110;2023-05-10T01:30:27;10.10;99.90
21772;DHT22;11047;47.904;8.110;2023-05-10T01:33:01;10.10;99.90
21772;DHT22;11047;47.904;8.110;2023-05-10T01:35:39;10.10;99.90
21772;DHT22;11047;47.904;8.110;2023-05-10T01:38:12;10.20;99.90
21772;DHT22;11047;47.904;8.110;2023-05-10T01:40:42;10.10;99.90
21772;DHT22;11047;47.904;8.110;2023-05-10T01:43:19;10.10;99.90
21772;DHT22;11047;47.904;8.110;2023-05-10T01:45:54;10.00;99.90
21772;DHT22;11047;47.904;8.110;2023-05-10T01:48:27;10.10;99.90
21772;DHT22;11047;47.904;8.110;2023-05-10T01:50:55;10.00;99.90
21772;DHT22;11047;47.904;8.110;2023-05-10T01:53:23;10.10;99.90
21772;DHT22;11047;47.904;8.110;2023-05-10T01:55:53;10.00;99.90
21772;DHT22;11047;47.904;8.110;2023-05-10T01:58:25;10.00;99.90
21772;DHT22;11047;47.904;8.110;2023-05-10T02:00:54;10.10;99.90
21772;DHT22;11047;47.904;8.110;2023-05-10T02:03:23;10.10;99.90
21772;DHT22;11047;47.904;8.110;2023-05-10T02:05:52;10.10;99.90
21772;DHT22;11047;47.904;8.110;2023-05-10T02:08:21;10.10;99.90
21772;DHT22;11047;47.904;8.110;2023-05-10T02:10:50;10.30;99.90
21772;DHT22;11047;47.904;8.110;2023-05-10T02:13:19;10.00;99.90
21772;DHT22;11047;47.904;8.110;2023-05-10T02:15:48;10.00;99.90
21772;DHT22;11047;47.904;8.110;2023-05-10T02:18:15;10.10;99.90
21772;DHT22;11047;47.904;8.110;2023-05-10T02:20:43;10.00;99.90
21772;DHT22;11047;47.904;8.110;2023-05-10T02:23:13;10.10;99.90
21772;DHT22;11047;47.904;8.110;2023-05-10T02:25:43;10.20;99.90
21772;DHT22;11047;47.904;8.110;2023-05-10T02:28:11;10.10;99.90
21772;DHT22;11047;47.904;8.110;2023-05-10T02:30:39;10.10;99.90
21772;DHT22;11047;47.904;8.110;2023-05-10T02:33:07;10.10;99.90
21772;DHT22;11047;47.904;8.110;2023-05-10T02:35:35;10.10;99.90
21772;DHT22;11047;47.904;8.110;2023-05-10T02:38:02;10.10;99.90
21772;DHT22;11047;47.904;8.110;2023-05-10T02:40:32;10.00;99.90
21772;DHT22;11047;47.904;8.110;2023-05-10T02:43:01;10.00;99.90
21772;DHT22;11047;47.904;8.110;2023-05-10T02:45:31;9.90;99.90
21772;DHT22;11047;47.904;8.110;2023-05-10T02:47:59;9.90;99.90
21772;DHT22;11047;47.904;8.110;2023-05-10T02:50:27;9.90;99.90
21772;DHT22;11047;47.904;8.110;2023-05-10T02:52:59;9.90;99.90
21772;DHT22;11047;47.904;8.110;2023-05-10T02:55:34;10.00;99.90
21772;DHT22;11047;47.904;8.110;2023-05-10T02:58:02;10.00;99.90
21772;DHT22;11047;47.904;8.110;2023-05-10T03:00:30;9.90;99.90
21772;DHT22;11047;47.904;8.110;2023-05-10T03:02:57;9.80;99.90
21772;DHT22;11047;47.904;8.110;2023-05-10T03:05:25;9.80;99.90
21772;DHT22;11047;47.904;8.110;2023-05-10T03:07:52;9.80;99.90
21772;DHT22;11047;47.904;8.110;2023-05-10T03:10:22;9.80;99.90
21772;DHT22;11047;47.904;8.110;2023-05-10T03:13:05;9.70;99.90
21772;DHT22;11047;47.904;8.110;2023-05-10T03:15:48;9.70;99.90
21772;DHT22;11047;47.904;8.110;2023-05-10T03:18:22;9.80;99.90
21772;DHT22;11047;47.904;8.110;2023-05-10T03:20:50;9.90;99.90
21772;DHT22;11047;47.904;8.110;2023-05-10T03:23:22;9.90;99.90
21772;DHT22;11047;47.904;8.110;2023-05-10T03:25:51;9.80;99.90
21772;DHT22;11047;47.904;8.110;2023-05-10T03:28:21;9.80;99.90
21772;DHT22;11047;47.904;8.110;2023-05-10T03:30:48;9.80;99.90
21772;DHT22;11047;47.904;8.110;2023-05-10T03:33:16;9.90;99.90
21772;DHT22;11047;47.904;8.110;2023-05-10T03:35:43;9.70;99.90
21772;DHT22;11047;47.904;8.110;2023-05-10T03:38:11;10.10;99.90
21772;DHT22;11047;47.904;8.110;2023-05-10T03:40:38;10.10;99.90
21772;DHT22;11047;47.904;8.110;2023-05-10T03:43:05;9.80;99.90
21772;DHT22;11047;47.904;8.110;2023-05-10T03:45:33;9.70;99.90
21772;DHT22;11047;47.904;8.110;2023-05-10T03:48:01;9.70;99.90
21772;DHT22;11047;47.904;8.110;2023-05-10T03:50:28;9.60;99.90
21772;DHT22;11047;47.904;8.110;2023-05-10T03:52:55;9.50;99.90
21772;DHT22;11047;47.904;8.110;2023-05-10T03:55:22;9.50;99.90
21772;DHT22;11047;47.904;8.110;2023-05-10T03:57:49;9.50;99.90
21772;DHT22;11047;47.904;8.110;2023-05-10T04:00:16;9.50;99.90
21772;DHT22;11047;47.904;8.110;2023-05-10T04:02:44;9.40;99.90
21772;DHT22;11047;47.904;8.110;2023-05-10T04:05:11;9.50;99.90
21772;DHT22;11047;47.904;8.110;2023-05-10T04:07:38;9.50;99.90
21772;DHT22;11047;47.904;8.110;2023-05-10T04:10:06;9.60;99.90
21772;DHT22;11047;47.904;8.110;2023-05-10T04:12:33;9.60;99.90
21772;DHT22;11047;47.904;8.110;2023-05-10T04:15:00;9.60;99.90
21772;DHT22;11047;47.904;8.110;2023-05-10T04:17:27;9.70;99.90
21772;DHT22;11047;47.904;8.110;2023-05-10T04:19:55;9.70;99.90
21772;DHT22;11047;47.904;8.110;2023-05-10T04:22:22;9.60;99.90
21772;DHT22;11047;47.904;8.110;2023-05-10T04:24:49;9.60;99.90
21772;DHT22;11047;47.904;8.110;2023-05-10T04:27:16;9.60;99.90
21772;DHT22;11047;47.904;8.110;2023-05-10T04:29:43;9.70;99.90
21772;DHT22;11047;47.904;8.110;2023-05-10T04:32:10;9.60;99.90
21772;DHT22;11047;47.904;8.110;2023-05-10T04:34:37;9.70;99.90
21772;DHT22;11047;47.904;8.110;2023-05-10T04:37:05;9.60;99.90
21772;DHT22;11047;47.904;8.110;2023-05-10T04:39:33;9.60;99.90
21772;DHT22;11047;47.904;8.110;2023-05-10T04:42:00;9.70;99.90
21772;DHT22;11047;47.904;8.110;2023-05-10T04:44:28;9.70;99.90
21772;DHT22;11047;47.904;8.110;2023-05-10T04:46:55;9.70;99.90
21772;DHT22;11047;47.904;8.110;2023-05-10T04:49:21;9.70;99.90
21772;DHT22;11047;47.904;8.110;2023-05-10T04:51:48;9.60;99.90
21772;DHT22;11047;47.904;8.110;2023-05-10T04:54:17;9.70;99.90
21772;DHT22;11047;47.904;8.110;2023-05-10T04:56:44;9.70;99.90
21772;DHT22;11047;47.904;8.110;2023-05-10T04:59:10;9.70;99.90
21772;DHT22;11047;47.904;8.110;2023-05-10T05:01:37;9.60;99.90
21772;DHT22;11047;47.904;8.110;2023-05-10T05:04:04;9.60;99.90
21772;DHT22;11047;47.904;8.110;2023-05-10T05:06:32;9.60;99.90
21772;DHT22;11047;47.904;8.110;2023-05-10T05:09:00;9.80;99.90
21772;DHT22;11047;47.904;8.110;2023-05-10T05:11:31;9.80;99.90
21772;DHT22;11047;47.904;8.110;2023-05-10T05:13:57;9.70;99.90
21772;DHT22;11047;47.904;8.110;2023-05-10T05:16:25;9.60;99.90
21772;DHT22;11047;47.904;8.110;2023-05-10T05:18:52;9.70;99.90
21772;DHT22;11047;47.904;8.110;2023-05-10T05:21:20;9.70;99.90
21772;DHT22;11047;47.904;8.110;2023-05-10T05:23:47;9.70;99.90
21772;DHT22;11047;47.904;8.110;2023-05-10T05:26:14;9.80;99.90
21772;DHT22;11047;47.904;8.110;2023-05-10T05:28:42;10.00;99.90
21772;DHT22;11047;47.904;8.110;2023-05-10T05:31:09;9.80;99.90
21772;DHT22;11047;47.904;8.110;2023-05-10T05:33:37;9.80;99.90
21772;DHT22;11047;47.904;8.110;2023-05-10T05:36:05;9.90;99.90
21772;DHT22;11047;47.904;8.110;2023-05-10T05:38:32;9.80;99.90
21772;DHT22;11047;47.904;8.110;2023-05-10T05:40:59;9.70;99.90
21772;DHT22;11047;47.904;8.110;2023-05-10T05:43:26;9.70;99.90
21772;DHT22;11047;47.904;8.110;2023-05-10T05:45:55;9.80;99.90
21772;DHT22;11047;47.904;8.110;2023-05-10T05:48:23;9.90;99.90
21772;DHT22;11047;47.904;8.110;2023-05-10T05:50:50;9.90;99.90
21772;DHT22;11047;47.904;8.110;2023-05-10T05:53:20;10.00;99.90
21772;DHT22;11047;47.904;8.110;2023-05-10T05:55:53;10.00;99.90
21772;DHT22;11047;47.904;8.110;2023-05-10T05:58:20;9.90;99.90
21772;DHT22;11047;47.904;8.110;2023-05-10T06:00:47;9.90;99.90
21772;DHT22;11047;47.904;8.110;2023-05-10T06:03:16;9.90;99.90
21772;DHT22;11047;47.904;8.110;2023-05-10T06:05:43;10.00;99.90
21772;DHT22;11047;47.904;8.110;2023-05-10T06:08:10;10.20;99.90
21772;DHT22;11047;47.904;8.110;2023-05-10T06:10:37;10.10;99.90
21772;DHT22;11047;47.904;8.110;2023-05-10T06:13:03;10.00;99.90
21772;DHT22;11047;47.904;8.110;2023-05-10T06:15:30;10.00;99.90
21772;DHT22;11047;47.904;8.110;2023-05-10T06:17:57;10.00;99.90
21772;DHT22;11047;47.904;8.110;2023-05-10T06:20:26;10.10;99.90
21772;DHT22;11047;47.904;8.110;2023-05-10T06:22:52;10.10;99.90
21772;DHT22;11047;47.904;8.110;2023-05-10T06:25:19;10.20;99.90
21772;DHT22;11047;47.904;8.110;2023-05-10T06:27:46;10.30;99.90
21772;DHT22;11047;47.904;8.110;2023-05-10T06:30:14;10.30;99.90
21772;DHT22;11047;47.904;8.110;2023-05-10T06:32:41;10.30;99.90
21772;DHT22;11047;47.904;8.110;2023-05-10T06:35:09;10.40;99.90
21772;DHT22;11047;47.904;8.110;2023-05-10T06:37:37;10.30;99.90
21772;DHT22;11047;47.904;8.110;2023-05-10T06:40:06;10.50;99.90
21772;DHT22;11047;47.904;8.110;2023-05-10T06:42:33;10.40;99.90
21772;DHT22;11047;47.904;8.110;2023-05-10T06:45:00;10.40;99.90
21772;DHT22;11047;47.904;8.110;2023-05-10T06:47:27;10.40;99.90
21772;DHT22;11047;47.904;8.110;2023-05-10T06:49:54;10.50;99.90
21772;DHT22;11047;47.904;8.110;2023-05-10T06:52:21;10.60;99.90
21772;DHT22;11047;47.904;8.110;2023-05-10T06:54:49;10.60;99.90
21772;DHT22;11047;47.904;8.110;2023-05-10T06:57:17;10.70;99.90
21772;DHT22;11047;47.904;8.110;2023-05-10T06:59:44;10.80;99.90
21772;DHT22;11047;47.904;8.110;2023-05-10T07:02:11;10.90;99.90
21772;DHT22;11047;47.904;8.110;2023-05-10T07:04:38;10.90;99.90
21772;DHT22;11047;47.904;8.110;2023-05-10T07:07:05;10.90;99.90
21772;DHT22;11047;47.904;8.110;2023-05-10T07:09:32;10.80;99.90
21772;DHT22;11047;47.904;8.110;2023-05-10T07:12:00;10.80;99.90
21772;DHT22;11047;47.904;8.110;2023-05-10T07:14:27;10.80;99.90
21772;DHT22;11047;47.904;8.110;2023-05-10T07:16:54;11.00;99.90
21772;DHT22;11047;47.904;8.110;2023-05-10T07:19:21;11.20;99.90
21772;DHT22;11047;47.904;8.110;2023-05-10T07:21:48;11.20;99.90
21772;DHT22;11047;47.904;8.110;2023-05-10T07:24:15;11.30;99.90
21772;DHT22;11047;47.904;8.110;2023-05-10T07:26:42;11.30;99.90
21772;DHT22;11047;47.904;8.110;2023-05-10T07:29:10;11.50;99.90
21772;DHT22;11047;47.904;8.110;2023-05-10T07:31:37;11.40;99.90
21772;DHT22;11047;47.904;8.110;2023-05-10T07:34:04;11.60;99.90
21772;DHT22;11047;47.904;8.110;2023-05-10T07:36:31;11.40;99.90
21772;DHT22;11047;47.904;8.110;2023-05-10T07:38:58;11.20;99.90
21772;DHT22;11047;47.904;8.110;2023-05-10T07:41:25;11.30;99.90
21772;DHT22;11047;47.904;8.110;2023-05-10T07:43:52;11.40;99.90
21772;DHT22;11047;47.904;8.110;2023-05-10T07:46:20;11.30;99.90
21772;DHT22;11047;47.904;8.110;2023-05-10T07:48:47;11.20;99.90
21772;DHT22;11047;47.904;8.110;2023-05-10T07:51:14;11.20;99.90
21772;DHT22;11047;47.904;8.110;2023-05-10T07:53:41;11.30;99.90
21772;DHT22;11047;47.904;8.110;2023-05-10T07:56:22;11.50;99.90
21772;DHT22;11047;47.904;8.110;2023-05-10T07:58:50;11.60;99.90
21772;DHT22;11047;47.904;8.110;2023-05-10T08:01:17;11.70;99.90
21772;DHT22;11047;47.904;8.110;2023-05-10T08:03:45;11.80;99.90
21772;DHT22;11047;47.904;8.110;2023-05-10T08:06:13;11.80;99.90
21772;DHT22;11047;47.904;8.110;2023-05-10T08:08:41;11.70;99.90
21772;DHT22;11047;47.904;8.110;2023-05-10T08:11:07;11.40;99.90
21772;DHT22;11047;47.904;8.110;2023-05-10T08:13:35;11.30;99.90
21772;DHT22;11047;47.904;8.110;2023-05-10T08:16:02;11.30;99.90
21772;DHT22;11047;47.904;8.110;2023-05-10T08:18:29;11.10;99.90
21772;DHT22;11047;47.904;8.110;2023-05-10T08:20:57;11.10;99.90
21772;DHT22;11047;47.904;8.110;2023-05-10T08:23:24;11.10;99.90
21772;DHT22;11047;47.904;8.110;2023-05-10T08:25:51;11.40;99.90
21772;DHT22;11047;47.904;8.110;2023-05-10T08:28:18;11.50;99.90
21772;DHT22;11047;47.904;8.110;2023-05-10T08:30:46;11.60;99.90
21772;DHT22;11047;47.904;8.110;2023-05-10T08:33:13;11.80;99.90
21772;DHT22;11047;47.904;8.110;2023-05-10T08:35:40;11.60;99.90
21772;DHT22;11047;47.904;8.110;2023-05-10T08:38:08;11.30;99.90
21772;DHT22;11047;47.904;8.110;2023-05-10T08:40:37;11.60;99.90
21772;DHT22;11047;47.904;8.110;2023-05-10T08:43:06;11.60;99.90
21772;DHT22;11047;47.904;8.110;2023-05-10T08:45:37;11.70;99.90
21772;DHT22;11047;47.904;8.110;2023-05-10T08:48:05;11.90;99.90
21772;DHT22;11047;47.904;8.110;2023-05-10T08:50:35;12.10;99.90
21772;DHT22;11047;47.904;8.110;2023-05-10T08:53:06;12.00;99.90
21772;DHT22;11047;47.904;8.110;2023-05-10T08:55:37;12.20;99.90
21772;DHT22;11047;47.904;8.110;2023-05-10T08:58:04;12.30;99.90
21772;DHT22;11047;47.904;8.110;2023-05-10T09:00:31;12.40;99.90
21772;DHT22;11047;47.904;8.110;2023-05-10T09:02:59;12.30;99.90
21772;DHT22;11047;47.904;8.110;2023-05-10T09:05:26;12.20;99.90
21772;DHT22;11047;47.904;8.110;2023-05-10T09:07:53;12.20;99.90
21772;DHT22;11047;47.904;8.110;2023-05-10T09:10:20;12.30;99.90
21772;DHT22;11047;47.904;8.110;2023-05-10T09:12:49;12.30;99.90
21772;DHT22;11047;47.904;8.110;2023-05-10T09:15:17;12.30;99.90
21772;DHT22;11047;47.904;8.110;2023-05-10T09:17:44;12.30;99.90
21772;DHT22;11047;47.904;8.110;2023-05-10T09:20:12;12.40;99.90
21772;DHT22;11047;47.904;8.110;2023-05-10T09:22:39;12.60;99.90
21772;DHT22;11047;47.904;8.110;2023-05-10T09:25:08;12.70;99.90
21772;DHT22;11047;47.904;8.110;2023-05-10T09:27:35;12.80;99.90
21772;DHT22;11047;47.904;8.110;2023-05-10T09:30:05;13.00;99.90
21772;DHT22;11047;47.904;8.110;2023-05-10T09:32:39;12.90;99.90
21772;DHT22;11047;47.904;8.110;2023-05-10T09:35:07;12.80;99.90
21772;DHT22;11047;47.904;8.110;2023-05-10T09:37:34;13.00;99.90
21772;DHT22;11047;47.904;8.110;2023-05-10T09:40:04;13.00;99.90
21772;DHT22;11047;47.904;8.110;2023-05-10T09:42:31;13.20;99.90
21772;DHT22;11047;47.904;8.110;2023-05-10T09:45:01;13.30;99.90
21772;DHT22;11047;47.904;8.110;2023-05-10T09:47:31;13.30;99.90
21772;DHT22;11047;47.904;8.110;2023-05-10T09:49:58;13.30;99.90
21772;DHT22;11047;47.904;8.110;2023-05-10T09:52:29;13.50;99.90
21772;DHT22;11047;47.904;8.110;2023-05-10T09:54:57;13.60;99.90
21772;DHT22;11047;47.904;8.110;2023-05-10T09:57:24;13.60;99.90
21772;DHT22;11047;47.904;8.110;2023-05-10T09:59:52;13.50;99.90
21772;DHT22;11047;47.904;8.110;2023-05-10T10:02:19;13.50;99.90
21772;DHT22;11047;47.904;8.110;2023-05-10T10:04:50;13.60;99.90
21772;DHT22;11047;47.904;8.110;2023-05-10T10:07:22;13.60;99.90
21772;DHT22;11047;47.904;8.110;2023-05-10T10:09:51;13.30;99.90
21772;DHT22;11047;47.904;8.110;2023-05-10T10:12:18;13.40;99.90
21772;DHT22;11047;47.904;8.110;2023-05-10T10:14:46;13.30;99.90
21772;DHT22;11047;47.904;8.110;2023-05-10T10:17:15;13.00;99.90
21772;DHT22;11047;47.904;8.110;2023-05-10T10:19:42;13.00;99.90
21772;DHT22;11047;47.904;8.110;2023-05-10T10:22:11;13.00;99.90
21772;DHT22;11047;47.904;8.110;2023-05-10T10:24:38;13.20;99.90
21772;DHT22;11047;47.904;8.110;2023-05-10T10:27:18;13.40;99.90
21772;DHT22;11047;47.904;8.110;2023-05-10T10:29:52;13.60;99.90
21772;DHT22;11047;47.904;8.110;2023-05-10T10:32:30;14.10;99.90
21772;DHT22;11047;47.904;8.110;2023-05-10T10:35:00;14.20;99.90
21772;DHT22;11047;47.904;8.110;2023-05-10T10:40:28;14.40;99.90
21772;DHT22;11047;47.904;8.110;2023-05-10T10:42:56;14.00;99.90
21772;DHT22;11047;47.904;8.110;2023-05-10T10:45:24;14.10;99.90
21772;DHT22;11047;47.904;8.110;2023-05-10T10:48:21;14.10;99.90
21772;DHT22;11047;47.904;8.110;2023-05-10T10:50:56;14.10;99.90
21772;DHT22;11047;47.904;8.110;2023-05-10T10:53:26;14.70;99.90
21772;DHT22;11047;47.904;8.110;2023-05-10T10:56:04;14.40;99.90
21772;DHT22;11047;47.904;8.110;2023-05-10T10:58:33;14.30;99.90
21772;DHT22;11047;47.904;8.110;2023-05-10T11:01:14;14.50;99.90
21772;DHT22;11047;47.904;8.110;2023-05-10T11:04:16;14.40;99.90
21772;DHT22;11047;47.904;8.110;2023-05-10T11:06:41;14.80;99.90
21772;DHT22;11047;47.904;8.110;2023-05-10T11:09:10;14.40;99.90
21772;DHT22;11047;47.904;8.110;2023-05-10T11:11:50;14.50;99.90
21772;DHT22;11047;47.904;8.110;2023-05-10T11:14:20;14.10;99.90
21772;DHT22;11047;47.904;8.110;2023-05-10T11:16:48;14.40;99.90
21772;DHT22;11047;47.904;8.110;2023-05-10T11:19:16;14.50;99.90
21772;DHT22;11047;47.904;8.110;2023-05-10T11:21:47;14.30;99.90
21772;DHT22;11047;47.904;8.110;2023-05-10T11:24:15;14.30;99.90
21772;DHT22;11047;47.904;8.110;2023-05-10T11:26:42;14.50;99.90
21772;DHT22;11047;47.904;8.110;2023-05-10T11:29:12;14.60;99.90
21772;DHT22;11047;47.904;8.110;2023-05-10T11:31:42;14.70;99.90
21772;DHT22;11047;47.904;8.110;2023-05-10T11:34:10;14.60;99.90
21772;DHT22;11047;47.904;8.110;2023-05-10T11:36:38;14.40;99.90
21772;DHT22;11047;47.904;8.110;2023-05-10T11:39:05;14.50;99.90
21772;DHT22;11047;47.904;8.110;2023-05-10T11:41:32;14.50;99.90
21772;DHT22;11047;47.904;8.110;2023-05-10T11:43:59;14.50;99.90
21772;DHT22;11047;47.904;8.110;2023-05-10T11:46:28;14.20;99.90
21772;DHT22;11047;47.904;8.110;2023-05-10T11:48:57;14.30;99.90
21772;DHT22;11047;47.904;8.110;2023-05-10T11:51:26;14.30;99.90
21772;DHT22;11047;47.904;8.110;2023-05-10T11:53:54;14.30;99.90
21772;DHT22;11047;47.904;8.110;2023-05-10T11:56:21;14.00;99.90
21772;DHT22;11047;47.904;8.110;2023-05-10T11:58:53;14.40;99.90
21772;DHT22;11047;47.904;8.110;2023-05-10T12:01:21;14.50;99.90
21772;DHT22;11047;47.904;8.110;2023-05-10T12:03:50;14.50;99.90
21772;DHT22;11047;47.904;8.110;2023-05-10T12:06:18;14.30;99.90
21772;DHT22;11047;47.904;8.110;2023-05-10T12:08:46;14.60;99.90
21772;DHT22;11047;47.904;8.110;2023-05-10T12:11:14;14.50;99.90
21772;DHT22;11047;47.904;8.110;2023-05-10T12:13:42;14.40;99.90
21772;DHT22;11047;47.904;8.110;2023-05-10T12:16:16;14.80;99.90
21772;DHT22;11047;47.904;8.110;2023-05-10T12:18:43;14.90;99.90
21772;DHT22;11047;47.904;8.110;2023-05-10T12:21:12;14.50;99.90
21772;DHT22;11047;47.904;8.110;2023-05-10T12:23:39;14.50;99.90
21772;DHT22;11047;47.904;8.110;2023-05-10T12:26:07;14.60;99.90
21772;DHT22;11047;47.904;8.110;2023-05-10T12:28:35;14.50;99.90
21772;DHT22;11047;47.904;8.110;2023-05-10T12:31:02;14.10;99.90
21772;DHT22;11047;47.904;8.110;2023-05-10T12:33:36;14.10;99.90
21772;DHT22;11047;47.904;8.110;2023-05-10T12:36:05;13.80;99.90
21772;DHT22;11047;47.904;8.110;2023-05-10T12:38:35;14.20;99.90
21772;DHT22;11047;47.904;8.110;2023-05-10T12:41:05;14.60;99.90
21772;DHT22;11047;47.904;8.110;2023-05-10T12:43:32;14.80;99.90
21772;DHT22;11047;47.904;8.110;2023-05-10T12:46:04;15.10;99.90
21772;DHT22;11047;47.904;8.110;2023-05-10T12:48:31;14.80;99.90
21772;DHT22;11047;47.904;8.110;2023-05-10T12:50:59;14.70;99.90
21772;DHT22;11047;47.904;8.110;2023-05-10T12:53:26;14.70;99.90
21772;DHT22;11047;47.904;8.110;2023-05-10T12:55:54;14.30;99.90
21772;DHT22;11047;47.904;8.110;2023-05-10T12:58:21;14.80;99.90
21772;DHT22;11047;47.904;8.110;2023-05-10T13:00:48;15.00;99.90
21772;DHT22;11047;47.904;8.110;2023-05-10T13:03:17;15.10;99.90
21772;DHT22;11047;47.904;8.110;2023-05-10T13:05:44;14.70;99.90
21772;DHT22;11047;47.904;8.110;2023-05-10T13:08:10;14.30;99.90
21772;DHT22;11047;47.904;8.110;2023-05-10T13:10:37;13.90;99.90
21772;DHT22;11047;47.904;8.110;2023-05-10T13:13:06;13.70;99.90
21772;DHT22;11047;47.904;8.110;2023-05-10T13:15:33;13.00;99.90
21772;DHT22;11047;47.904;8.110;2023-05-10T13:18:00;13.20;99.90
21772;DHT22;11047;47.904;8.110;2023-05-10T13:20:27;12.60;99.90
21772;DHT22;11047;47.904;8.110;2023-05-10T13:22:54;12.60;99.90
21772;DHT22;11047;47.904;8.110;2023-05-10T13:25:20;12.40;99.90
21772;DHT22;11047;47.904;8.110;2023-05-10T13:27:47;12.60;99.90
21772;DHT22;11047;47.904;8.110;2023-05-10T13:30:16;12.60;99.90
21772;DHT22;11047;47.904;8.110;2023-05-10T13:32:43;12.80;99.90
21772;DHT22;11047;47.904;8.110;2023-05-10T13:35:11;13.00;99.90
21772;DHT22;11047;47.904;8.110;2023-05-10T13:37:37;13.60;99.90
21772;DHT22;11047;47.904;8.110;2023-05-10T13:40:05;13.80;99.90
21772;DHT22;11047;47.904;8.110;2023-05-10T13:42:32;14.00;99.90
21772;DHT22;11047;47.904;8.110;2023-05-10T13:45:00;14.00;99.90
21772;DHT22;11047;47.904;8.110;2023-05-10T13:47:28;13.90;99.90
21772;DHT22;11047;47.904;8.110;2023-05-10T13:49:55;13.50;99.90
21772;DHT22;11047;47.904;8.110;2023-05-10T13:52:23;13.50;99.90
21772;DHT22;11047;47.904;8.110;2023-05-10T13:54:50;13.50;99.90
21772;DHT22;11047;47.904;8.110;2023-05-10T13:57:20;13.90;99.90
21772;DHT22;11047;47.904;8.110;2023-05-10T13:59:47;14.00;99.90
21772;DHT22;11047;47.904;8.110;2023-05-10T14:02:14;14.20;99.90
21772;DHT22;11047;47.904;8.110;2023-05-10T14:04:42;14.30;99.90
21772;DHT22;11047;47.904;8.110;2023-05-10T14:07:09;14.60;99.90
21772;DHT22;11047;47.904;8.110;2023-05-10T14:09:36;14.90;99.90
21772;DHT22;11047;47.904;8.110;2023-05-10T14:12:03;14.90;99.90
21772;DHT22;11047;47.904;8.110;2023-05-10T14:14:30;14.60;99.90
21772;DHT22;11047;47.904;8.110;2023-05-10T14:16:57;14.50;99.90
21772;DHT22;11047;47.904;8.110;2023-05-10T14:19:24;14.10;99.90
21772;DHT22;11047;47.904;8.110;2023-05-10T14:21:53;14.20;99.90
21772;DHT22;11047;47.904;8.110;2023-05-10T14:24:20;14.10;99.90
21772;DHT22;11047;47.904;8.110;2023-05-10T14:26:47;14.10;99.90
21772;DHT22;11047;47.904;8.110;2023-05-10T14:29:14;14.00;99.90
21772;DHT22;11047;47.904;8.110;2023-05-10T14:31:41;14.10;99.90
21772;DHT22;11047;47.904;8.110;2023-05-10T14:34:08;13.90;99.90
21772;DHT22;11047;47.904;8.110;2023-05-10T14:36:35;13.90;99.90
21772;DHT22;11047;47.904;8.110;2023-05-10T14:39:03;13.50;99.90
21772;DHT22;11047;47.904;8.110;2023-05-10T14:41:32;13.10;99.90
21772;DHT22;11047;47.904;8.110;2023-05-10T14:43:59;13.00;99.90
21772;DHT22;11047;47.904;8.110;2023-05-10T14:46:26;12.60;99.90
21772;DHT22;11047;47.904;8.110;2023-05-10T14:48:53;12.10;99.90
21772;DHT22;11047;47.904;8.110;2023-05-10T14:51:19;12.10;99.90
21772;DHT22;11047;47.904;8.110;2023-05-10T14:53:47;12.20;99.90
21772;DHT22;11047;47.904;8.110;2023-05-10T14:56:16;12.40;99.90
21772;DHT22;11047;47.904;8.110;2023-05-10T14:58:43;12.30;99.90
21772;DHT22;11047;47.904;8.110;2023-05-10T15:01:11;12.40;99.90
21772;DHT22;11047;47.904;8.110;2023-05-10T15:03:38;12.70;99.90
21772;DHT22;11047;47.904;8.110;2023-05-10T15:06:05;12.80;99.90
21772;DHT22;11047;47.904;8.110;2023-05-10T15:08:32;13.00;99.90
21772;DHT22;11047;47.904;8.110;2023-05-10T15:10:59;12.80;99.90
21772;DHT22;11047;47.904;8.110;2023-05-10T15:13:27;13.00;99.90
21772;DHT22;11047;47.904;8.110;2023-05-10T15:15:54;13.00;99.90
21772;DHT22;11047;47.904;8.110;2023-05-10T15:18:21;13.10;99.90
21772;DHT22;11047;47.904;8.110;2023-05-10T15:20:48;13.10;99.90
21772;DHT22;11047;47.904;8.110;2023-05-10T15:23:15;13.00;99.90
21772;DHT22;11047;47.904;8.110;2023-05-10T15:25:42;12.70;99.90
21772;DHT22;11047;47.904;8.110;2023-05-10T15:28:09;12.80;99.90
21772;DHT22;11047;47.904;8.110;2023-05-10T15:30:37;12.80;99.90
21772;DHT22;11047;47.904;8.110;2023-05-10T15:33:04;12.80;99.90
21772;DHT22;11047;47.904;8.110;2023-05-10T15:35:31;12.80;99.90
21772;DHT22;11047;47.904;8.110;2023-05-10T15:37:59;12.70;99.90
21772;DHT22;11047;47.904;8.110;2023-05-10T15:40:25;12.50;99.90
21772;DHT22;11047;47.904;8.110;2023-05-10T15:42:52;12.80;99.90
21772;DHT22;11047;47.904;8.110;2023-05-10T15:45:19;12.70;99.90
21772;DHT22;11047;47.904;8.110;2023-05-10T15:47:48;12.90;99.90